createdAt,value
2023-01-30T00:00:26.393Z,75.25
2023-01-30T00:01:26.378Z,75.25
2023-01-30T00:02:26.468Z,75.25
2023-01-30T00:03:26.300Z,75.15
2023-01-30T00:04:26.373Z,75.04
2023-01-30T00:05:26.264Z,75.04
2023-01-30T00:06:26.304Z,75.04
2023-01-30T00:07:26.243Z,75.15
2023-01-30T00:08:26.341Z,75.15
2023-01-30T00:09:26.268Z,75.25
2023-01-30T00:10:26.248Z,75.25
2023-01-30T00:11:26.199Z,75.25
2023-01-30T00:12:26.294Z,75.25
2023-01-30T00:13:26.209Z,75.35
2023-01-30T00:14:26.184Z,75.46
2023-01-30T00:15:26.140Z,75.57
2023-01-30T00:16:26.262Z,75.57
2023-01-30T00:17:26.134Z,75.67
2023-01-30T00:18:26.119Z,75.67
2023-01-30T00:19:26.180Z,75.78
2023-01-30T00:20:26.095Z,75.67
2023-01-30T00:21:26.106Z,75.67
2023-01-30T00:22:26.066Z,75.78
2023-01-30T00:23:26.063Z,75.78
2023-01-30T00:24:26.158Z,75.78
2023-01-30T00:25:26.165Z,75.88
2023-01-30T00:26:26.031Z,75.88
2023-01-30T00:27:26.041Z,75.78
2023-01-30T00:28:25.997Z,75.78
2023-01-30T00:29:25.991Z,75.67
2023-01-30T00:30:25.982Z,75.46
2023-01-30T00:31:25.987Z,75.46
2023-01-30T00:32:26.039Z,75.57
2023-01-30T00:33:26.361Z,75.67
2023-01-30T00:34:25.947Z,75.78
2023-01-30T00:35:25.940Z,75.78
2023-01-30T00:36:25.865Z,75.78
2023-01-30T00:37:25.905Z,75.88
2023-01-30T00:38:25.923Z,75.88
2023-01-30T00:39:25.905Z,75.88
2023-01-30T00:40:25.862Z,75.88
2023-01-30T00:41:25.843Z,75.98
2023-01-30T00:42:25.851Z,75.98
2023-01-30T00:43:25.849Z,76.09
2023-01-30T00:44:25.887Z,76.09
2023-01-30T00:45:25.824Z,76.20
2023-01-30T00:46:25.830Z,76.30
2023-01-30T00:47:25.772Z,76.09
2023-01-30T00:48:25.804Z,76.09
2023-01-30T00:49:25.735Z,76.30
2023-01-30T00:50:25.766Z,76.23
2023-01-30T00:51:25.765Z,76.09
2023-01-30T00:52:25.778Z,75.98
2023-01-30T00:53:25.709Z,75.88
2023-01-30T00:54:25.723Z,75.88
2023-01-30T00:55:25.673Z,75.88
2023-01-30T00:56:25.641Z,75.98
2023-01-30T00:57:25.666Z,76.12
2023-01-30T01:03:10.405Z,76.12
2023-01-30T01:04:10.347Z,76.02
2023-01-30T01:05:10.329Z,75.98
2023-01-30T01:06:10.340Z,75.92
2023-01-30T01:07:10.278Z,75.88
2023-01-30T01:08:10.297Z,75.92
2023-01-30T01:09:10.307Z,75.92
2023-01-30T01:10:10.293Z,75.92
2023-01-30T01:11:10.296Z,76.02
2023-01-30T01:12:10.286Z,76.02
2023-01-30T01:13:10.250Z,76.02
2023-01-30T01:14:10.244Z,76.02
2023-01-30T01:15:18.595Z,76.02
2023-01-30T01:16:10.233Z,76.02
2023-01-30T01:17:10.181Z,75.92
2023-01-30T01:18:10.159Z,75.92
2023-01-30T01:19:10.134Z,75.92
2023-01-30T01:20:10.163Z,76.12
2023-01-30T01:21:10.109Z,76.23
2023-01-30T01:22:10.149Z,76.33
2023-01-30T01:23:10.085Z,76.44
2023-01-30T01:24:10.086Z,76.44
2023-01-30T01:25:10.058Z,76.54
2023-01-30T01:26:10.122Z,76.54
2023-01-30T01:27:10.060Z,76.54
2023-01-30T01:28:10.081Z,76.54
2023-01-30T01:29:10.048Z,76.54
2023-01-30T01:30:10.033Z,76.54
2023-01-30T01:31:10.062Z,76.65
2023-01-30T01:32:10.075Z,76.65
2023-01-30T01:33:09.950Z,76.65
2023-01-30T01:34:10.004Z,76.75
2023-01-30T01:35:09.938Z,76.65
2023-01-30T01:36:09.946Z,76.65
2023-01-30T01:37:09.913Z,76.65
2023-01-30T01:38:09.916Z,76.65
2023-01-30T01:39:09.876Z,76.65
2023-01-30T01:40:09.907Z,76.65
2023-01-30T01:41:09.857Z,76.75
2023-01-30T01:42:10.638Z,76.75
2023-01-30T01:43:09.865Z,76.75
2023-01-30T01:44:09.843Z,76.75
2023-01-30T01:45:09.843Z,76.75
2023-01-30T01:46:09.919Z,76.86
2023-01-30T01:47:09.791Z,76.96
2023-01-30T01:48:09.796Z,76.86
2023-01-30T01:49:09.751Z,76.96
2023-01-30T01:50:09.750Z,76.96
2023-01-30T01:51:09.749Z,76.96
2023-01-30T01:52:09.736Z,77.07
2023-01-30T01:53:09.698Z,77.17
2023-01-30T01:54:09.761Z,77.07
2023-01-30T01:55:09.676Z,77.07
2023-01-30T01:56:09.686Z,77.07
2023-01-30T01:57:09.650Z,76.96
2023-01-30T01:58:09.680Z,76.86
2023-01-30T01:59:09.624Z,76.86
2023-01-30T02:00:09.656Z,76.75
2023-01-30T02:01:09.752Z,76.75
2023-01-30T02:02:09.661Z,76.75
2023-01-30T02:03:09.576Z,76.75
2023-01-30T02:04:09.612Z,76.65
2023-01-30T02:05:09.552Z,76.75
2023-01-30T02:06:09.584Z,76.75
2023-01-30T02:07:09.555Z,76.65
2023-01-30T02:08:09.540Z,76.65
2023-01-30T02:09:09.518Z,76.65
2023-01-30T02:10:09.520Z,76.44
2023-01-30T02:11:09.487Z,76.33
2023-01-30T02:12:09.476Z,76.20
2023-01-30T02:13:09.471Z,76.20
2023-01-30T02:14:09.467Z,76.30
2023-01-30T02:15:09.430Z,76.30
2023-01-30T02:16:09.454Z,76.30
2023-01-30T02:17:09.439Z,76.40
2023-01-30T02:18:09.406Z,76.20
2023-01-30T02:19:09.373Z,76.30
2023-01-30T02:20:09.391Z,76.30
2023-01-30T02:21:09.352Z,76.20
2023-01-30T02:22:09.375Z,76.20
2023-01-30T02:23:09.348Z,76.20
2023-01-30T02:24:09.369Z,76.30
2023-01-30T02:25:09.320Z,76.20
2023-01-30T02:26:09.327Z,76.20
2023-01-30T02:27:09.299Z,76.20
2023-01-30T02:28:09.257Z,76.30
2023-01-30T02:29:09.276Z,76.40
2023-01-30T02:30:09.236Z,76.40
2023-01-30T02:31:09.353Z,76.40
2023-01-30T02:32:09.215Z,76.51
2023-01-30T02:33:09.216Z,76.51
2023-01-30T02:34:09.186Z,76.40
2023-01-30T02:35:09.190Z,76.20
2023-01-30T02:36:09.163Z,75.98
2023-01-30T02:37:09.201Z,76.09
2023-01-30T02:38:09.150Z,76.09
2023-01-30T02:39:09.140Z,76.09
2023-01-30T02:40:09.108Z,76.09
2023-01-30T02:41:09.113Z,76.20
2023-01-30T02:42:09.088Z,76.40
2023-01-30T02:43:09.128Z,76.61
2023-01-30T02:44:09.057Z,76.51
2023-01-30T02:45:09.090Z,76.40
2023-01-30T02:46:09.055Z,76.51
2023-01-30T02:47:09.057Z,76.61
2023-01-30T02:48:09.020Z,76.51
2023-01-30T02:49:09.054Z,76.51
2023-01-30T02:50:08.995Z,76.61
2023-01-30T02:51:09.012Z,76.75
2023-01-30T02:52:08.962Z,76.96
2023-01-30T02:53:08.984Z,77.17
2023-01-30T02:54:08.932Z,77.28
2023-01-30T02:55:08.978Z,77.38
2023-01-30T02:56:08.909Z,77.59
2023-01-30T02:57:08.929Z,77.59
2023-01-30T02:58:08.910Z,77.69
2023-01-30T02:59:08.896Z,77.69
2023-01-30T03:00:08.857Z,77.80
2023-01-30T03:01:08.954Z,77.91
2023-01-30T03:02:08.849Z,77.91
2023-01-30T03:03:08.845Z,77.91
2023-01-30T03:04:08.828Z,77.91
2023-01-30T03:05:08.833Z,77.80
2023-01-30T03:06:08.783Z,77.80
2023-01-30T03:07:08.843Z,77.91
2023-01-30T03:08:08.775Z,77.91
2023-01-30T03:09:08.811Z,78.22
2023-01-30T03:10:08.764Z,78.32
2023-01-30T03:11:08.740Z,78.32
2023-01-30T03:12:08.711Z,78.53
2023-01-30T03:13:08.727Z,78.43
2023-01-30T03:14:08.689Z,78.43
2023-01-30T03:15:08.702Z,78.43
2023-01-30T03:16:08.701Z,78.08
2023-01-30T03:17:08.721Z,77.91
2023-01-30T03:18:08.643Z,77.76
2023-01-30T03:19:08.636Z,77.66
2023-01-30T03:20:08.655Z,77.66
2023-01-30T03:21:08.622Z,77.66
2023-01-30T03:22:08.614Z,77.55
2023-01-30T03:23:08.592Z,77.66
2023-01-30T03:24:08.575Z,77.76
2023-01-30T03:25:08.575Z,77.87
2023-01-30T03:26:08.575Z,77.97
2023-01-30T03:27:08.551Z,78.39
2023-01-30T03:28:08.541Z,78.50
2023-01-30T03:29:08.509Z,78.81
2023-01-30T03:30:08.518Z,78.81
2023-01-30T03:31:08.585Z,78.91
2023-01-30T03:32:08.462Z,78.60
2023-01-30T03:33:08.499Z,78.70
2023-01-30T03:34:08.460Z,78.39
2023-01-30T03:35:08.465Z,78.18
2023-01-30T03:36:08.406Z,78.08
2023-01-30T03:37:08.414Z,77.87
2023-01-30T03:38:08.413Z,77.87
2023-01-30T03:39:08.399Z,77.66
2023-01-30T03:40:08.353Z,77.52
2023-01-30T03:41:08.377Z,77.10
2023-01-30T03:42:08.348Z,77.20
2023-01-30T03:43:08.342Z,77.00
2023-01-30T03:44:08.340Z,77.00
2023-01-30T03:45:08.339Z,77.00
2023-01-30T03:46:08.383Z,76.89
2023-01-30T03:47:08.290Z,77.00
2023-01-30T03:48:08.267Z,77.10
2023-01-30T03:49:08.278Z,76.89
2023-01-30T03:50:08.266Z,76.93
2023-01-30T03:51:08.235Z,77.03
2023-01-30T03:52:08.213Z,76.89
2023-01-30T03:53:08.224Z,76.79
2023-01-30T03:54:08.184Z,76.79
2023-01-30T03:55:08.224Z,76.68
2023-01-30T03:56:08.234Z,76.68
2023-01-30T03:57:08.170Z,76.68
2023-01-30T03:58:08.136Z,76.68
2023-01-30T03:59:08.141Z,76.82
2023-01-30T04:00:08.150Z,77.03
2023-01-30T04:01:08.144Z,77.14
2023-01-30T04:02:08.155Z,77.14
2023-01-30T04:03:08.170Z,77.14
2023-01-30T04:04:08.062Z,77.14
2023-01-30T04:05:08.076Z,77.14
2023-01-30T04:06:08.046Z,77.14
2023-01-30T04:07:08.086Z,77.14
2023-01-30T04:08:08.015Z,77.03
2023-01-30T04:09:08.037Z,77.14
2023-01-30T04:10:08.007Z,77.14
2023-01-30T04:11:07.993Z,77.45
2023-01-30T04:12:07.999Z,77.14
2023-01-30T04:13:07.993Z,77.34
2023-01-30T04:14:07.934Z,77.34
2023-01-30T04:15:07.986Z,77.66
2023-01-30T04:16:07.956Z,77.66
2023-01-30T04:17:07.933Z,77.66
2023-01-30T04:18:07.900Z,77.80
2023-01-30T04:19:07.909Z,77.87
2023-01-30T04:20:07.880Z,78.01
2023-01-30T04:21:07.898Z,77.97
2023-01-30T04:22:07.877Z,77.97
2023-01-30T04:23:07.890Z,78.08
2023-01-30T04:24:07.806Z,78.08
2023-01-30T04:25:07.850Z,78.08
2023-01-30T04:26:07.870Z,78.08
2023-01-30T04:27:07.793Z,78.18
2023-01-30T04:28:08.726Z,78.18
2023-01-30T04:29:07.819Z,78.43
2023-01-30T04:30:07.822Z,78.53
2023-01-30T04:31:07.764Z,78.39
2023-01-30T04:32:07.799Z,78.39
2023-01-30T04:33:07.733Z,78.39
2023-01-30T04:34:07.683Z,78.29
2023-01-30T04:35:08.649Z,78.32
2023-01-30T04:36:07.704Z,78.50
2023-01-30T04:37:07.701Z,78.22
2023-01-30T04:38:07.690Z,78.32
2023-01-30T04:39:07.689Z,78.43
2023-01-30T04:40:07.617Z,78.53
2023-01-30T04:41:07.640Z,78.74
2023-01-30T04:42:07.601Z,78.95
2023-01-30T04:43:07.584Z,78.95
2023-01-30T04:44:07.613Z,78.74
2023-01-30T04:45:07.600Z,78.85
2023-01-30T04:46:07.535Z,79.05
2023-01-30T04:47:07.577Z,79.05
2023-01-30T04:48:07.552Z,79.30
2023-01-30T04:49:07.522Z,79.16
2023-01-30T04:50:07.519Z,79.20
2023-01-30T04:51:07.498Z,79.51
2023-01-30T04:52:07.499Z,79.51
2023-01-30T04:53:08.439Z,79.51
2023-01-30T04:54:07.491Z,79.51
2023-01-30T04:55:07.501Z,79.61
2023-01-30T04:56:07.415Z,79.61
2023-01-30T04:57:07.449Z,79.61
2023-01-30T04:58:07.447Z,79.61
2023-01-30T04:59:07.402Z,79.61
2023-01-30T05:00:07.394Z,79.72
2023-01-30T05:01:07.719Z,79.72
2023-01-30T05:02:07.416Z,79.93
2023-01-30T05:03:07.407Z,79.93
2023-01-30T05:04:07.371Z,79.72
2023-01-30T05:05:07.390Z,79.83
2023-01-30T05:06:07.335Z,79.83
2023-01-30T05:07:07.319Z,79.93
2023-01-30T05:08:07.296Z,79.72
2023-01-30T05:09:07.354Z,79.83
2023-01-30T05:10:07.249Z,79.93
2023-01-30T05:11:07.371Z,80.04
2023-01-30T05:12:07.243Z,79.93
2023-01-30T05:13:07.218Z,79.83
2023-01-30T05:14:07.185Z,79.93
2023-01-30T05:15:07.215Z,79.83
2023-01-30T05:16:07.159Z,79.83
2023-01-30T05:17:07.228Z,79.93
2023-01-30T05:18:07.146Z,80.04
2023-01-30T05:19:07.155Z,79.72
2023-01-30T05:20:07.152Z,79.72
2023-01-30T05:21:07.160Z,79.72
2023-01-30T05:22:07.074Z,79.72
2023-01-30T05:23:07.100Z,79.72
2023-01-30T05:24:07.048Z,79.72
2023-01-30T05:25:07.072Z,79.83
2023-01-30T05:26:07.071Z,79.83
2023-01-30T05:27:07.034Z,79.72
2023-01-30T05:28:06.996Z,79.83
2023-01-30T05:29:07.065Z,79.72
2023-01-30T05:30:06.986Z,79.86
2023-01-30T05:31:07.078Z,80.07
2023-01-30T05:32:06.975Z,80.28
2023-01-30T05:33:07.018Z,80.18
2023-01-30T05:34:06.933Z,80.18
2023-01-30T05:35:07.042Z,79.86
2023-01-30T05:36:06.914Z,79.61
2023-01-30T05:37:06.941Z,79.65
2023-01-30T05:38:06.907Z,79.97
2023-01-30T05:39:06.919Z,80.07
2023-01-30T05:40:06.999Z,80.28
2023-01-30T05:41:06.858Z,80.18
2023-01-30T05:42:06.819Z,80.07
2023-01-30T05:43:06.867Z,80.18
2023-01-30T05:44:06.808Z,80.38
2023-01-30T05:45:06.873Z,80.49
2023-01-30T05:46:06.801Z,80.49
2023-01-30T05:47:06.776Z,80.38
2023-01-30T05:48:06.773Z,80.49
2023-01-30T05:49:06.781Z,80.28
2023-01-30T05:50:06.742Z,80.28
2023-01-30T05:51:06.756Z,80.28
2023-01-30T05:52:06.727Z,80.18
2023-01-30T05:53:06.730Z,80.18
2023-01-30T05:54:06.681Z,80.38
2023-01-30T05:55:06.669Z,80.38
2023-01-30T05:56:06.678Z,80.49
2023-01-30T05:57:06.674Z,80.49
2023-01-30T05:58:06.644Z,80.49
2023-01-30T05:59:06.638Z,80.38
2023-01-30T06:00:06.615Z,80.18
2023-01-30T06:01:06.595Z,79.65
2023-01-30T06:02:06.567Z,79.23
2023-01-30T06:03:06.667Z,79.23
2023-01-30T06:04:06.581Z,79.02
2023-01-30T06:05:06.564Z,79.02
2023-01-30T06:06:06.548Z,79.30
2023-01-30T06:07:06.553Z,78.78
2023-01-30T06:08:06.504Z,78.57
2023-01-30T06:09:06.509Z,78.57
2023-01-30T06:10:06.461Z,79.83
2023-01-30T06:11:06.485Z,78.78
2023-01-30T06:12:06.481Z,78.88
2023-01-30T06:13:06.470Z,78.88
2023-01-30T06:14:06.435Z,78.57
2023-01-30T06:15:06.441Z,78.78
2023-01-30T06:16:06.570Z,78.99
2023-01-30T06:17:06.511Z,78.88
2023-01-30T06:18:06.388Z,78.88
2023-01-30T06:19:06.404Z,78.99
2023-01-30T06:20:06.355Z,78.99
2023-01-30T06:21:07.300Z,78.78
2023-01-30T06:22:06.505Z,78.67
2023-01-30T06:23:06.314Z,78.99
2023-01-30T06:24:06.293Z,78.88
2023-01-30T06:25:06.326Z,78.99
2023-01-30T06:26:08.844Z,78.88
2023-01-30T06:27:06.271Z,78.88
2023-01-30T06:28:06.255Z,78.99
2023-01-30T06:29:06.249Z,78.88
2023-01-30T06:30:06.179Z,78.78
2023-01-30T06:31:06.308Z,78.92
2023-01-30T06:32:06.186Z,78.88
2023-01-30T06:33:06.191Z,79.02
2023-01-30T06:34:06.141Z,79.02
2023-01-30T06:35:06.145Z,78.99
2023-01-30T06:36:06.080Z,79.13
2023-01-30T06:37:06.117Z,79.09
2023-01-30T06:38:06.093Z,79.02
2023-01-30T06:39:06.098Z,79.13
2023-01-30T06:40:06.037Z,79.13
2023-01-30T06:41:06.048Z,79.13
2023-01-30T06:42:06.003Z,79.13
2023-01-30T06:43:06.029Z,78.81
2023-01-30T06:44:06.020Z,78.81
2023-01-30T06:45:06.281Z,78.81
2023-01-30T06:46:06.075Z,78.81
2023-01-30T06:47:06.023Z,78.92
2023-01-30T06:48:06.786Z,79.02
2023-01-30T06:49:05.976Z,79.02
2023-01-30T06:50:06.027Z,79.23
2023-01-30T06:51:05.943Z,79.34
2023-01-30T06:52:05.942Z,79.55
2023-01-30T06:53:05.895Z,79.44
2023-01-30T06:54:05.871Z,79.65
2023-01-30T06:55:05.955Z,79.75
2023-01-30T06:56:05.945Z,79.97
2023-01-30T06:57:05.897Z,80.18
2023-01-30T06:58:05.902Z,80.28
2023-01-30T06:59:05.843Z,80.28
2023-01-30T07:00:05.890Z,80.18
2023-01-30T07:01:05.785Z,80.28
2023-01-30T07:02:05.849Z,80.60
2023-01-30T07:03:05.759Z,80.70
2023-01-30T07:04:05.870Z,80.80
2023-01-30T07:05:05.807Z,80.80
2023-01-30T07:06:06.088Z,80.38
2023-01-30T07:07:06.982Z,80.24
2023-01-30T07:08:06.057Z,80.04
2023-01-30T07:09:05.729Z,80.04
2023-01-30T07:10:08.682Z,80.18
2023-01-30T07:11:05.644Z,80.24
2023-01-30T07:12:05.657Z,80.28
2023-01-30T07:13:05.633Z,80.18
2023-01-30T07:14:07.084Z,79.93
2023-01-30T07:15:05.618Z,80.07
2023-01-30T07:16:12.644Z,80.18
2023-01-30T07:17:05.623Z,80.28
2023-01-30T07:18:05.651Z,80.28
2023-01-30T07:19:05.561Z,80.07
2023-01-30T07:20:05.533Z,80.04
2023-01-30T07:21:05.514Z,80.04
2023-01-30T07:22:05.533Z,79.83
2023-01-30T07:23:05.484Z,79.83
2023-01-30T07:24:05.501Z,80.07
2023-01-30T07:25:05.479Z,80.07
2023-01-30T07:26:05.479Z,80.28
2023-01-30T07:27:05.483Z,80.38
2023-01-30T07:28:05.443Z,80.14
2023-01-30T07:29:05.407Z,80.14
2023-01-30T07:30:05.422Z,80.18
2023-01-30T07:31:05.387Z,80.28
2023-01-30T07:32:05.405Z,80.14
2023-01-30T07:33:05.397Z,80.07
2023-01-30T07:34:05.354Z,80.07
2023-01-30T07:35:06.055Z,80.07
2023-01-30T07:36:05.334Z,79.72
2023-01-30T07:37:05.305Z,79.61
2023-01-30T07:38:05.348Z,79.61
2023-01-30T07:39:05.274Z,79.61
2023-01-30T07:40:05.303Z,79.61
2023-01-30T07:41:05.261Z,79.51
2023-01-30T07:42:05.270Z,79.41
2023-01-30T07:43:05.267Z,79.30
2023-01-30T07:44:05.266Z,79.30
2023-01-30T07:45:05.219Z,79.30
2023-01-30T07:46:05.294Z,79.20
2023-01-30T07:47:05.279Z,79.30
2023-01-30T07:48:05.197Z,79.30
2023-01-30T07:49:05.186Z,79.41
2023-01-30T07:50:05.156Z,79.51
2023-01-30T07:51:05.130Z,79.41
2023-01-30T07:52:05.146Z,79.09
2023-01-30T07:53:05.104Z,78.88
2023-01-30T07:54:05.112Z,78.67
2023-01-30T07:55:05.116Z,78.67
2023-01-30T07:56:05.092Z,78.46
2023-01-30T07:57:05.071Z,78.46
2023-01-30T07:58:05.072Z,78.57
2023-01-30T07:59:05.025Z,78.64
2023-01-30T08:00:05.040Z,78.67
2023-01-30T08:01:05.074Z,78.78
2023-01-30T08:02:05.039Z,78.88
2023-01-30T08:03:04.977Z,79.09
2023-01-30T08:04:04.998Z,79.09
2023-01-30T08:05:06.257Z,79.20
2023-01-30T08:06:04.988Z,79.20
2023-01-30T08:07:04.935Z,78.99
2023-01-30T08:08:04.944Z,78.88
2023-01-30T08:09:04.894Z,78.99
2023-01-30T08:10:04.970Z,78.85
2023-01-30T08:11:04.872Z,78.74
2023-01-30T08:12:04.956Z,78.95
2023-01-30T08:13:04.871Z,78.64
2023-01-30T08:14:04.856Z,78.53
2023-01-30T08:15:04.808Z,78.43
2023-01-30T08:16:04.830Z,78.22
2023-01-30T08:17:04.808Z,78.22
2023-01-30T08:18:04.842Z,78.18
2023-01-30T08:19:04.803Z,78.08
2023-01-30T08:20:04.790Z,77.76
2023-01-30T08:21:04.748Z,77.34
2023-01-30T08:22:04.810Z,77.24
2023-01-30T08:23:04.723Z,76.82
2023-01-30T08:24:04.738Z,76.82
2023-01-30T08:25:04.733Z,77.03
2023-01-30T08:26:04.728Z,77.03
2023-01-30T08:27:04.714Z,77.03
2023-01-30T08:28:04.703Z,77.24
2023-01-30T08:29:04.664Z,77.24
2023-01-30T08:30:04.701Z,77.14
2023-01-30T08:31:04.782Z,76.93
2023-01-30T08:32:04.650Z,77.14
2023-01-30T08:33:04.620Z,77.45
2023-01-30T08:34:04.641Z,77.55
2023-01-30T08:35:04.569Z,77.45
2023-01-30T08:36:04.627Z,77.59
2023-01-30T08:37:04.541Z,77.59
2023-01-30T08:38:04.563Z,77.69
2023-01-30T08:39:04.515Z,77.91
2023-01-30T08:40:04.521Z,77.80
2023-01-30T08:41:04.494Z,77.69
2023-01-30T08:42:04.513Z,78.01
2023-01-30T08:43:04.471Z,78.11
2023-01-30T08:44:04.483Z,78.01
2023-01-30T08:45:04.451Z,78.11
2023-01-30T08:46:04.512Z,78.11
2023-01-30T08:47:04.447Z,78.11
2023-01-30T08:48:04.429Z,78.22
2023-01-30T08:49:04.389Z,78.32
2023-01-30T08:50:04.464Z,78.32
2023-01-30T08:51:04.388Z,78.32
2023-01-30T08:52:04.425Z,78.11
2023-01-30T08:53:04.337Z,78.11
2023-01-30T08:54:04.356Z,77.97
2023-01-30T08:55:04.329Z,77.97
2023-01-30T08:56:04.373Z,77.91
2023-01-30T08:57:04.298Z,77.87
2023-01-30T08:58:04.326Z,77.87
2023-01-30T08:59:04.270Z,77.87
2023-01-30T09:00:04.302Z,78.08
2023-01-30T09:01:04.269Z,78.18
2023-01-30T09:02:04.257Z,78.29
2023-01-30T09:03:04.215Z,77.76
2023-01-30T09:04:04.222Z,77.55
2023-01-30T09:05:04.198Z,77.62
2023-01-30T09:06:04.267Z,77.62
2023-01-30T09:07:04.178Z,77.10
2023-01-30T09:08:04.231Z,77.10
2023-01-30T09:09:04.135Z,77.10
2023-01-30T09:10:04.172Z,77.10
2023-01-30T09:11:04.121Z,76.89
2023-01-30T09:12:04.145Z,76.89
2023-01-30T09:13:04.115Z,76.68
2023-01-30T09:14:04.150Z,76.47
2023-01-30T09:15:04.066Z,76.47
2023-01-30T09:16:04.091Z,76.47
2023-01-30T09:17:04.076Z,76.26
2023-01-30T09:18:04.060Z,76.37
2023-01-30T09:19:04.010Z,76.57
2023-01-30T09:20:04.012Z,76.68
2023-01-30T09:21:03.995Z,76.89
2023-01-30T09:22:03.989Z,77.00
2023-01-30T09:23:03.987Z,76.86
2023-01-30T09:24:03.973Z,76.75
2023-01-30T09:25:03.937Z,76.44
2023-01-30T09:26:04.012Z,76.54
2023-01-30T09:27:03.917Z,76.54
2023-01-30T09:28:03.929Z,76.54
2023-01-30T09:29:03.914Z,76.23
2023-01-30T09:30:03.904Z,76.23
2023-01-30T09:31:04.020Z,76.23
2023-01-30T09:32:03.867Z,76.23
2023-01-30T09:33:03.882Z,76.23
2023-01-30T09:34:03.908Z,76.54
2023-01-30T09:35:03.810Z,76.40
2023-01-30T09:36:03.849Z,76.40
2023-01-30T09:37:04.970Z,76.20
2023-01-30T09:38:03.789Z,76.20
2023-01-30T09:39:03.762Z,75.98
2023-01-30T09:40:03.791Z,75.57
2023-01-30T09:41:03.754Z,75.53
2023-01-30T09:42:03.757Z,75.43
2023-01-30T09:43:03.751Z,75.53
2023-01-30T09:44:03.716Z,75.43
2023-01-30T09:45:03.696Z,75.12
2023-01-30T09:46:03.765Z,74.91
2023-01-30T09:47:03.695Z,74.77
2023-01-30T09:48:03.688Z,75.18
2023-01-30T09:49:03.634Z,74.87
2023-01-30T09:50:03.662Z,74.87
2023-01-30T09:51:03.609Z,74.77
2023-01-30T09:52:03.644Z,74.45
2023-01-30T09:53:03.609Z,74.01
2023-01-30T09:54:03.604Z,73.58
2023-01-30T09:55:03.558Z,73.41
2023-01-30T09:56:03.582Z,73.52
2023-01-30T09:57:03.552Z,73.48
2023-01-30T09:58:03.549Z,73.69
2023-01-30T09:59:03.538Z,73.58
2023-01-30T10:00:03.538Z,73.45
2023-01-30T10:01:03.492Z,72.92
2023-01-30T10:02:03.507Z,72.92
2023-01-30T10:03:03.522Z,72.72
2023-01-30T10:04:03.602Z,72.61
2023-01-30T10:05:03.508Z,73.03
2023-01-30T10:06:03.500Z,73.45
2023-01-30T10:07:03.413Z,73.55
2023-01-30T10:08:03.420Z,72.61
2023-01-30T10:09:03.403Z,72.61
2023-01-30T10:10:03.432Z,72.51
2023-01-30T10:11:11.001Z,72.19
2023-01-30T10:12:04.369Z,71.98
2023-01-30T10:13:03.341Z,72.19
2023-01-30T10:14:03.343Z,72.82
2023-01-30T10:15:03.317Z,72.51
2023-01-30T10:16:03.439Z,72.30
2023-01-30T10:17:03.278Z,72.61
2023-01-30T10:18:03.323Z,72.82
2023-01-30T10:19:03.265Z,72.30
2023-01-30T10:20:03.273Z,72.51
2023-01-30T10:21:03.235Z,72.51
2023-01-30T10:22:03.277Z,72.33
2023-01-30T10:23:03.260Z,72.30
2023-01-30T10:24:03.226Z,72.44
2023-01-30T10:25:03.207Z,72.54
2023-01-30T10:26:03.241Z,72.64
2023-01-30T10:27:04.825Z,72.75
2023-01-30T10:28:03.210Z,72.96
2023-01-30T10:29:07.611Z,73.03
2023-01-30T10:30:04.153Z,73.03
2023-01-30T10:31:03.242Z,72.61
2023-01-30T10:32:03.138Z,72.72
2023-01-30T10:33:03.088Z,72.72
2023-01-30T10:34:03.088Z,72.51
2023-01-30T10:35:03.052Z,72.51
2023-01-30T10:36:03.056Z,72.72
2023-01-30T10:37:03.053Z,72.72
2023-01-30T10:38:03.031Z,72.61
2023-01-30T10:39:03.002Z,72.82
2023-01-30T10:40:02.999Z,72.61
2023-01-30T10:41:02.973Z,72.78
2023-01-30T10:42:02.995Z,72.58
2023-01-30T10:43:02.961Z,72.27
2023-01-30T10:44:02.989Z,72.27
2023-01-30T10:45:02.917Z,72.16
2023-01-30T10:46:02.933Z,72.16
2023-01-30T10:47:02.895Z,72.06
2023-01-30T10:48:02.906Z,71.53
2023-01-30T10:49:02.905Z,71.53
2023-01-30T10:50:02.915Z,71.53
2023-01-30T10:51:02.851Z,71.75
2023-01-30T10:52:02.869Z,71.22
2023-01-30T10:53:02.835Z,70.81
2023-01-30T10:54:02.842Z,71.12
2023-01-30T10:55:02.793Z,70.91
2023-01-30T10:56:02.801Z,71.01
2023-01-30T10:57:02.816Z,70.81
2023-01-30T10:58:02.760Z,70.70
2023-01-30T10:59:02.767Z,70.70
2023-01-30T11:00:02.778Z,70.70
2023-01-30T11:01:02.748Z,70.67
2023-01-30T11:02:02.815Z,70.15
2023-01-30T11:03:02.848Z,70.04
2023-01-30T11:04:02.688Z,69.53
2023-01-30T11:05:02.717Z,68.90
2023-01-30T11:06:02.680Z,68.90
2023-01-30T11:07:02.726Z,69.10
2023-01-30T11:08:02.662Z,69.31
2023-01-30T11:09:02.655Z,69.21
2023-01-30T11:10:02.623Z,68.90
2023-01-30T11:11:02.623Z,69.00
2023-01-30T11:12:02.572Z,69.07
2023-01-30T11:13:02.608Z,69.07
2023-01-30T11:14:02.601Z,68.76
2023-01-30T11:15:02.589Z,68.87
2023-01-30T11:16:02.568Z,68.76
2023-01-30T11:17:02.560Z,68.66
2023-01-30T11:18:22.793Z,68.35
2023-01-30T11:19:21.501Z,68.35
2023-01-30T11:20:03.484Z,68.45
2023-01-30T11:21:02.523Z,68.66
2023-01-30T11:22:02.445Z,68.66
2023-01-30T11:23:02.485Z,68.55
2023-01-30T11:24:02.425Z,68.76
2023-01-30T11:25:02.447Z,69.07
2023-01-30T11:26:11.317Z,68.66
2023-01-30T11:27:03.463Z,68.52
2023-01-30T11:28:02.382Z,68.84
2023-01-30T11:29:02.382Z,68.52
2023-01-30T11:30:02.353Z,68.32
2023-01-30T11:31:02.392Z,68.32
2023-01-30T11:32:02.494Z,68.52
2023-01-30T11:33:02.340Z,68.94
2023-01-30T11:34:02.334Z,68.73
2023-01-30T11:35:02.308Z,68.84
2023-01-30T11:36:03.783Z,68.80
2023-01-30T11:37:02.302Z,68.91
2023-01-30T11:38:02.256Z,68.70
2023-01-30T11:39:02.284Z,68.80
2023-01-30T11:40:02.274Z,68.70
2023-01-30T11:41:02.239Z,69.32
2023-01-30T11:42:02.197Z,69.01
2023-01-30T11:43:02.233Z,68.80
2023-01-30T11:44:02.183Z,68.70
2023-01-30T11:45:17.060Z,68.70
2023-01-30T11:46:03.288Z,68.84
2023-01-30T11:47:02.179Z,69.35
2023-01-30T11:48:04.587Z,69.43
2023-01-30T11:49:32.218Z,69.64
2023-01-30T11:50:19.630Z,69.22
2023-01-30T11:51:03.116Z,68.91
2023-01-30T11:52:02.098Z,68.91
2023-01-30T11:53:02.118Z,69.09
2023-01-30T11:54:02.075Z,68.25
2023-01-30T11:55:02.093Z,68.15
2023-01-30T11:56:07.166Z,68.12
2023-01-30T11:57:03.026Z,67.91
2023-01-30T11:58:01.995Z,67.18
2023-01-30T11:59:02.041Z,67.08
2023-01-30T12:00:01.985Z,67.25
2023-01-30T12:01:01.979Z,67.57
2023-01-30T12:02:01.981Z,67.22
2023-01-30T12:03:02.009Z,66.71
2023-01-30T12:04:01.913Z,66.39
2023-01-30T12:05:01.980Z,66.50
2023-01-30T12:06:01.919Z,66.71
2023-01-30T12:07:01.911Z,66.08
2023-01-30T12:08:01.868Z,66.39
2023-01-30T12:09:01.877Z,66.50
2023-01-30T12:10:01.859Z,66.28
2023-01-30T12:11:01.858Z,66.08
2023-01-30T12:12:01.822Z,66.42
2023-01-30T12:13:01.834Z,66.74
2023-01-30T12:14:01.817Z,67.15
2023-01-30T12:15:01.835Z,66.94
2023-01-30T12:16:01.833Z,67.15
2023-01-30T12:17:01.764Z,67.25
2023-01-30T12:18:01.748Z,67.57
2023-01-30T12:19:01.771Z,67.67
2023-01-30T12:20:01.720Z,67.36
2023-01-30T12:21:01.762Z,67.46
2023-01-30T12:22:01.706Z,67.25
2023-01-30T12:23:01.707Z,67.36
2023-01-30T12:24:01.661Z,67.25
2023-01-30T12:25:01.673Z,67.77
2023-01-30T12:26:01.640Z,67.15
2023-01-30T12:27:01.661Z,67.12
2023-01-30T12:28:03.468Z,67.33
2023-01-30T12:29:01.596Z,67.64
2023-01-30T12:30:01.631Z,67.95
2023-01-30T12:31:01.609Z,68.05
2023-01-30T12:32:01.588Z,68.26
2023-01-30T12:34:01.576Z,67.85
2023-01-30T12:35:01.524Z,67.85
2023-01-30T12:36:01.553Z,67.85
2023-01-30T12:37:01.514Z,67.71
2023-01-30T12:38:01.558Z,67.71
2023-01-30T12:39:01.470Z,67.30
2023-01-30T12:40:01.508Z,66.47
2023-01-30T12:41:01.442Z,66.57
2023-01-30T12:42:01.441Z,67.22
2023-01-30T12:43:01.489Z,67.33
2023-01-30T12:44:01.438Z,67.50
2023-01-30T12:45:01.413Z,67.50
2023-01-30T12:46:01.479Z,67.54
2023-01-30T12:47:01.376Z,67.64
2023-01-30T12:48:01.375Z,67.54
2023-01-30T12:50:02.347Z,67.43
2023-01-30T12:51:01.347Z,67.74
2023-01-30T12:52:01.383Z,67.46
2023-01-30T12:53:01.286Z,67.88
2023-01-30T12:54:01.295Z,67.88
2023-01-30T12:55:01.260Z,67.98
2023-01-30T12:56:01.264Z,67.88
2023-01-30T12:57:01.271Z,68.08
2023-01-30T12:58:01.245Z,68.29
2023-01-30T12:59:01.211Z,67.88